createdAt,value
2022-11-09T00:00:07.301Z,9.51
2022-11-09T00:02:33.896Z,9.52
2022-11-09T00:05:00.443Z,9.53
2022-11-09T00:07:29.738Z,9.54
2022-11-09T00:09:56.381Z,9.59
2022-11-09T00:12:23.007Z,9.63
2022-11-09T00:14:49.658Z,9.65
2022-11-09T00:17:16.312Z,9.66
2022-11-09T00:19:42.892Z,9.67
2022-11-09T00:22:09.679Z,9.67
2022-11-09T00:24:36.209Z,9.69
2022-11-09T00:27:02.782Z,9.70
2022-11-09T00:29:29.519Z,9.71
2022-11-09T00:31:56.053Z,9.71
2022-11-09T00:34:22.607Z,9.70
2022-11-09T00:36:49.221Z,9.70
2022-11-09T00:39:16.241Z,9.70
2022-11-09T00:41:42.856Z,9.71
2022-11-09T00:44:09.865Z,9.71
2022-11-09T00:46:36.731Z,9.69
2022-11-09T00:49:03.610Z,9.67
2022-11-09T00:51:30.211Z,9.66
2022-11-09T00:53:57.435Z,9.66
2022-11-09T00:56:24.618Z,9.66
2022-11-09T00:58:55.315Z,9.66
2022-11-09T01:01:22.178Z,9.67
2022-11-09T01:03:48.951Z,9.67
2022-11-09T01:06:24.095Z,9.65
2022-11-09T01:08:51.755Z,9.65
2022-11-09T01:11:20.174Z,9.67
2022-11-09T01:13:46.923Z,9.65
2022-11-09T01:16:19.492Z,9.66
2022-11-09T01:18:46.635Z,9.65
2022-11-09T01:21:15.556Z,9.60
2022-11-09T01:23:43.401Z,9.64
2022-11-09T01:26:12.580Z,9.61
2022-11-09T01:28:39.676Z,9.62
2022-11-09T01:31:16.088Z,9.59
2022-11-09T01:33:42.769Z,9.58
2022-11-09T01:36:12.586Z,9.60
2022-11-09T01:38:39.992Z,9.61
2022-11-09T01:41:07.643Z,9.61
2022-11-09T01:43:34.584Z,9.63
2022-11-09T01:46:06.522Z,9.63
2022-11-09T01:48:33.552Z,9.60
2022-11-09T01:51:06.746Z,9.63
2022-11-09T01:53:36.813Z,9.63
2022-11-09T01:56:07.732Z,9.63
2022-11-09T01:58:39.522Z,9.62
2022-11-09T02:01:11.184Z,9.63
2022-11-09T02:03:45.861Z,9.64
2022-11-09T02:06:15.731Z,9.65
2022-11-09T02:08:44.363Z,9.64
2022-11-09T02:11:14.166Z,9.63
2022-11-09T02:13:46.960Z,9.62
2022-11-09T02:16:15.063Z,9.61
2022-11-09T02:18:50.375Z,9.63
2022-11-09T02:21:17.102Z,9.62
2022-11-09T02:23:43.736Z,9.63
2022-11-09T02:26:15.650Z,9.62
2022-11-09T02:28:43.026Z,9.63
2022-11-09T02:31:13.442Z,9.62
2022-11-09T02:34:06.591Z,9.64
2022-11-09T02:36:33.724Z,9.62
2022-11-09T02:39:00.428Z,9.61
2022-11-09T02:41:30.454Z,9.61
2022-11-09T02:43:57.342Z,9.63
2022-11-09T02:46:33.381Z,9.58
2022-11-09T02:49:01.311Z,9.62
2022-11-09T02:51:28.286Z,9.63
2022-11-09T02:53:54.850Z,9.62
2022-11-09T02:56:21.719Z,9.64
2022-11-09T02:58:48.644Z,9.63
2022-11-09T03:01:15.301Z,9.61
2022-11-09T03:03:42.062Z,9.62
2022-11-09T03:06:08.775Z,9.61
2022-11-09T03:08:35.422Z,9.64
2022-11-09T03:11:02.356Z,9.62
2022-11-09T03:13:28.934Z,9.62
2022-11-09T03:15:55.491Z,9.66
2022-11-09T03:18:22.098Z,9.67
2022-11-09T03:20:48.815Z,9.67
2022-11-09T03:23:15.395Z,9.66
2022-11-09T03:25:41.963Z,9.66
2022-11-09T03:28:08.632Z,9.65
2022-11-09T03:30:35.636Z,9.64
2022-11-09T03:33:05.493Z,9.61
2022-11-09T03:35:32.238Z,9.63
2022-11-09T03:37:58.888Z,9.63
2022-11-09T03:40:25.588Z,9.64
2022-11-09T03:42:52.231Z,9.65
2022-11-09T03:45:18.953Z,9.65
2022-11-09T03:47:46.904Z,9.67
2022-11-09T03:50:15.081Z,9.68
2022-11-09T03:52:45.787Z,9.67
2022-11-09T03:55:12.810Z,9.65
2022-11-09T03:57:39.809Z,9.66
2022-11-09T04:00:08.191Z,9.62
2022-11-09T04:02:34.910Z,9.61
2022-11-09T04:05:01.491Z,9.61
2022-11-09T04:07:28.089Z,9.63
2022-11-09T04:09:54.650Z,9.64
2022-11-09T04:12:21.238Z,9.65
2022-11-09T04:14:47.842Z,9.65
2022-11-09T04:17:14.600Z,9.67
2022-11-09T04:19:41.217Z,9.66
2022-11-09T04:22:08.382Z,9.64
2022-11-09T04:24:35.018Z,9.64
2022-11-09T04:27:01.700Z,9.66
2022-11-09T04:29:28.327Z,9.63
2022-11-09T04:31:55.157Z,9.63
2022-11-09T04:34:21.809Z,9.63
2022-11-09T04:36:48.495Z,9.61
2022-11-09T04:39:15.865Z,9.61
2022-11-09T04:41:42.955Z,9.60
2022-11-09T04:44:09.743Z,9.61
2022-11-09T04:46:36.315Z,9.58
2022-11-09T04:49:02.966Z,9.56
2022-11-09T04:51:29.607Z,9.60
2022-11-09T04:53:56.590Z,9.59
2022-11-09T04:56:23.187Z,9.59
2022-11-09T04:58:50.801Z,9.55
2022-11-09T05:01:17.627Z,9.54
2022-11-09T05:03:44.365Z,9.53
2022-11-09T05:06:29.610Z,9.53
2022-11-09T05:08:56.558Z,9.52
2022-11-09T05:11:23.452Z,9.53
2022-11-09T05:13:51.586Z,9.53
2022-11-09T05:16:19.549Z,9.51
2022-11-09T05:18:47.187Z,9.52
2022-11-09T05:21:14.168Z,9.52
2022-11-09T05:23:59.717Z,9.54
2022-11-09T05:26:37.871Z,9.53
2022-11-09T05:29:07.161Z,9.53
2022-11-09T05:31:34.038Z,9.51
2022-11-09T05:34:01.015Z,9.52
2022-11-09T05:36:29.446Z,9.52
2022-11-09T05:38:56.759Z,9.51
2022-11-09T05:41:23.712Z,9.54
2022-11-09T05:43:50.356Z,9.53
2022-11-09T05:46:18.427Z,9.51
2022-11-09T05:48:45.962Z,9.48
2022-11-09T05:51:14.298Z,9.50
2022-11-09T05:53:46.126Z,9.47
2022-11-09T05:56:14.562Z,9.46
2022-11-09T05:58:42.117Z,9.43
2022-11-09T06:01:12.402Z,9.44
2022-11-09T06:03:40.417Z,9.43
2022-11-09T06:06:09.159Z,9.43
2022-11-09T06:08:35.972Z,9.43
2022-11-09T06:11:05.756Z,9.44
2022-11-09T06:13:33.055Z,9.37
2022-11-09T06:16:01.325Z,9.36
2022-11-09T06:18:30.452Z,9.31
2022-11-09T06:20:59.575Z,9.24
2022-11-09T06:23:26.247Z,9.22
2022-11-09T06:26:09.200Z,9.21
2022-11-09T06:28:37.382Z,9.19
2022-11-09T06:31:05.724Z,9.18
2022-11-09T06:33:34.980Z,9.09
2022-11-09T06:36:02.444Z,9.02
2022-11-09T06:38:29.519Z,8.93
2022-11-09T06:40:58.414Z,8.87
2022-11-09T06:43:25.656Z,8.84
2022-11-09T06:45:52.893Z,8.86
2022-11-09T06:48:20.067Z,8.87
2022-11-09T06:50:46.686Z,8.86
2022-11-09T06:53:15.810Z,8.82
2022-11-09T06:55:48.806Z,8.82
2022-11-09T06:58:17.232Z,8.79
2022-11-09T07:00:44.589Z,8.83
2022-11-09T07:03:15.944Z,8.87
2022-11-09T07:05:43.362Z,8.86
2022-11-09T07:08:10.791Z,8.79
2022-11-09T07:10:37.746Z,8.79
2022-11-09T07:13:05.751Z,8.84
2022-11-09T07:15:33.805Z,8.91
2022-11-09T07:18:02.157Z,8.87
2022-11-09T07:20:29.620Z,8.86
2022-11-09T07:22:56.291Z,8.94
2022-11-09T07:25:23.019Z,8.99
2022-11-09T07:27:49.595Z,9.02
2022-11-09T07:30:16.377Z,9.08
2022-11-09T07:35:30.098Z,9.14
2022-11-09T07:38:01.509Z,9.10
2022-11-09T07:40:28.200Z,9.11
2022-11-09T07:42:58.631Z,9.10
2022-11-09T07:45:26.056Z,9.06
2022-11-09T07:48:03.340Z,9.06
2022-11-09T07:50:31.477Z,9.03
2022-11-09T07:52:59.454Z,9.04
2022-11-09T07:55:27.259Z,9.08
2022-11-09T07:58:02.551Z,9.11
2022-11-09T08:00:31.187Z,9.02
2022-11-09T08:02:57.904Z,8.89
2022-11-09T08:05:24.935Z,8.82
2022-11-09T08:07:59.318Z,8.75
2022-11-09T08:10:27.677Z,8.81
2022-11-09T08:12:59.077Z,8.87
2022-11-09T08:15:26.761Z,8.83
2022-11-09T08:17:53.835Z,8.84
2022-11-09T08:20:20.980Z,8.84
2022-11-09T08:22:47.932Z,8.76
2022-11-09T08:25:15.783Z,8.77
2022-11-09T08:27:42.876Z,8.70
2022-11-09T08:30:20.859Z,8.63
2022-11-09T08:32:48.937Z,8.67
2022-11-09T08:35:20.323Z,8.75
2022-11-09T08:37:48.969Z,8.95
2022-11-09T08:40:20.919Z,9.15
2022-11-09T08:42:47.822Z,9.20
2022-11-09T08:45:15.090Z,9.12
2022-11-09T08:47:41.995Z,9.10
2022-11-09T08:50:10.348Z,9.08
2022-11-09T08:52:37.330Z,9.11
2022-11-09T08:55:04.333Z,9.20
2022-11-09T08:57:31.121Z,9.22
2022-11-09T08:59:57.680Z,9.16
2022-11-09T09:02:24.695Z,9.21
2022-11-09T09:04:51.305Z,9.17
2022-11-09T09:07:17.926Z,9.14
2022-11-09T09:09:44.692Z,9.12
2022-11-09T09:12:11.409Z,9.11
2022-11-09T09:14:38.015Z,9.13
2022-11-09T09:17:04.717Z,9.16
2022-11-09T09:19:32.130Z,9.17
2022-11-09T09:21:59.573Z,9.23
2022-11-09T09:24:27.017Z,9.24
2022-11-09T09:26:53.738Z,9.28
2022-11-09T09:29:20.383Z,9.26
2022-11-09T09:31:46.915Z,9.23
2022-11-09T09:34:14.397Z,9.34
2022-11-09T09:36:44.859Z,9.43
2022-11-09T09:39:15.284Z,9.38
2022-11-09T09:42:04.954Z,9.36
2022-11-09T09:44:56.933Z,9.31
2022-11-09T09:47:38.386Z,9.34
2022-11-09T09:50:12.915Z,9.43
2022-11-09T09:53:04.652Z,9.41
2022-11-09T09:55:38.950Z,9.43
2022-11-09T09:58:23.513Z,9.44
2022-11-09T10:00:55.013Z,9.46
2022-11-09T10:03:21.733Z,9.50
2022-11-09T10:06:11.671Z,9.60
2022-11-09T10:08:45.306Z,9.63
2022-11-09T10:11:53.788Z,9.63
2022-11-09T10:14:41.254Z,9.70
2022-11-09T10:17:22.495Z,9.73
2022-11-09T10:20:13.252Z,9.77
2022-11-09T10:23:06.527Z,9.82
2022-11-09T10:28:37.989Z,9.80
2022-11-09T10:31:19.871Z,9.80
2022-11-09T10:33:53.435Z,9.90
2022-11-09T10:36:42.336Z,9.93
2022-11-09T10:39:14.240Z,9.91
2022-11-09T10:41:45.682Z,9.86
2022-11-09T10:44:17.691Z,9.88
2022-11-09T10:47:11.302Z,9.87
2022-11-09T10:49:39.142Z,9.91
2022-11-09T10:52:26.627Z,10.01
2022-11-09T10:54:53.157Z,9.94
2022-11-09T10:57:23.326Z,9.84
2022-11-09T10:59:56.404Z,9.88
2022-11-09T11:02:26.207Z,9.91
2022-11-09T11:05:15.481Z,10.00
2022-11-09T11:07:42.164Z,9.98
2022-11-09T11:10:19.374Z,9.71
2022-11-09T11:12:57.079Z,9.47
2022-11-09T11:15:37.268Z,9.30
2022-11-09T11:18:23.154Z,9.28
2022-11-09T11:21:25.662Z,9.29
2022-11-09T11:24:21.615Z,9.31
2022-11-09T11:27:06.556Z,9.42
2022-11-09T11:29:55.969Z,9.41
2022-11-09T11:32:23.983Z,9.45
2022-11-09T11:35:05.992Z,9.47
2022-11-09T11:37:58.942Z,9.54
2022-11-09T11:40:29.730Z,9.64
2022-11-09T11:43:05.864Z,9.63
2022-11-09T11:45:40.584Z,9.57
2022-11-09T11:48:33.064Z,9.72
2022-11-09T11:51:22.751Z,9.74
2022-11-09T11:54:13.961Z,9.70
2022-11-09T11:56:56.535Z,9.75
2022-11-09T11:59:50.450Z,9.72
2022-11-09T12:02:44.686Z,9.76
2022-11-09T12:05:20.498Z,9.75
2022-11-09T12:07:57.064Z,9.83
2022-11-09T12:10:42.371Z,9.84
2022-11-09T12:13:36.119Z,9.73
2022-11-09T12:16:05.536Z,9.56
2022-11-09T12:18:45.781Z,9.51
2022-11-09T12:21:23.837Z,9.50
2022-11-09T12:24:05.807Z,9.45
2022-11-09T12:27:17.833Z,9.42
2022-11-09T12:29:58.759Z,9.44
2022-11-09T12:32:36.845Z,9.43
2022-11-09T12:35:25.165Z,9.46
2022-11-09T12:38:24.060Z,9.53
2022-11-09T12:40:58.494Z,9.46
2022-11-09T12:43:33.299Z,9.43
2022-11-09T12:46:03.947Z,9.39
2022-11-09T12:48:35.552Z,9.48
2022-11-09T12:51:05.555Z,9.48
2022-11-09T12:53:37.369Z,9.47
2022-11-09T12:56:10.073Z,9.48
2022-11-09T12:58:38.592Z,9.43
2022-11-09T13:01:14.321Z,9.44
2022-11-09T13:03:54.496Z,9.35
2022-11-09T13:07:06.130Z,9.38
2022-11-09T13:09:44.395Z,9.41
2022-11-09T13:12:33.639Z,9.48
2022-11-09T13:15:27.434Z,9.57
2022-11-09T13:18:03.702Z,9.64
2022-11-09T13:23:47.609Z,9.71
2022-11-09T13:26:32.928Z,9.82
2022-11-09T13:29:28.930Z,9.90
2022-11-09T13:32:09.033Z,9.84
2022-11-09T13:34:47.758Z,9.81
2022-11-09T13:37:36.193Z,9.73
2022-11-09T13:40:33.545Z,9.66
2022-11-09T13:43:00.026Z,9.68
2022-11-09T13:45:34.737Z,9.94
2022-11-09T13:48:02.997Z,9.87
2022-11-09T13:50:32.104Z,9.78
2022-11-09T13:52:59.989Z,9.78
2022-11-09T13:55:31.558Z,9.68
2022-11-09T13:58:24.534Z,9.69
2022-11-09T14:00:51.133Z,9.71
2022-11-09T14:03:19.522Z,9.69
2022-11-09T14:05:50.477Z,9.68
2022-11-09T14:08:24.151Z,9.64
2022-11-09T14:10:53.591Z,9.57
2022-11-09T14:13:48.514Z,9.53
2022-11-09T14:16:32.775Z,9.46
2022-11-09T14:19:30.061Z,9.49
2022-11-09T14:21:56.622Z,9.54
2022-11-09T14:24:28.962Z,9.50
2022-11-09T14:27:12.583Z,9.60
2022-11-09T14:29:57.326Z,9.64
2022-11-09T14:32:31.395Z,9.59
2022-11-09T14:35:19.723Z,9.63
2022-11-09T14:37:46.535Z,9.66
2022-11-09T14:40:17.413Z,9.59
2022-11-09T14:42:49.114Z,9.55
2022-11-09T14:45:17.085Z,9.49
2022-11-09T14:47:47.213Z,9.42
2022-11-09T14:50:30.510Z,9.36
2022-11-09T14:52:58.064Z,9.29
2022-11-09T14:55:25.625Z,9.26
2022-11-09T14:57:54.547Z,9.23
2022-11-09T15:00:26.027Z,9.20
2022-11-09T15:02:52.616Z,9.18
2022-11-09T15:05:39.795Z,9.18
2022-11-09T15:08:20.115Z,9.15
2022-11-09T15:10:52.132Z,9.15
2022-11-09T15:13:27.872Z,9.11
2022-11-09T15:15:55.625Z,9.07
2022-11-09T15:18:44.731Z,9.03
2022-11-09T15:21:17.139Z,9.08
2022-11-09T15:23:49.101Z,9.08
2022-11-09T15:26:41.613Z,9.08
2022-11-09T15:29:29.530Z,9.06
2022-11-09T15:32:02.245Z,9.03
2022-11-09T15:34:36.658Z,9.01
2022-11-09T15:37:03.658Z,8.95
2022-11-09T15:39:30.260Z,8.90
2022-11-09T15:41:57.811Z,8.88
2022-11-09T15:44:24.398Z,8.94
2022-11-09T15:46:53.134Z,8.88
2022-11-09T15:49:24.091Z,8.78
2022-11-09T15:51:51.883Z,8.64
2022-11-09T15:54:19.390Z,8.52
2022-11-09T15:56:46.949Z,8.51
2022-11-09T15:59:19.853Z,8.48
2022-11-09T16:01:46.448Z,8.41
2022-11-09T16:04:13.135Z,8.30
2022-11-09T16:06:45.231Z,8.36
2022-11-09T16:09:13.051Z,8.35
2022-11-09T16:11:39.672Z,8.33
2022-11-09T16:14:06.555Z,8.26
2022-11-09T16:16:33.166Z,8.20
2022-11-09T16:18:59.951Z,8.12
2022-11-09T16:21:26.541Z,8.04
2022-11-09T16:23:58.313Z,7.92
2022-11-09T16:26:25.787Z,7.95
2022-11-09T16:28:54.594Z,7.90
2022-11-09T16:31:40.981Z,7.86
2022-11-09T16:34:07.745Z,7.81
2022-11-09T16:36:34.519Z,7.81
2022-11-09T16:39:06.362Z,7.84
2022-11-09T16:41:33.106Z,7.82
2022-11-09T16:43:59.706Z,7.89
2022-11-09T16:46:28.998Z,7.86
2022-11-09T16:48:55.832Z,7.87
2022-11-09T16:51:22.448Z,7.84
2022-11-09T16:53:49.184Z,7.86
2022-11-09T16:56:17.084Z,7.94
2022-11-09T16:58:43.796Z,7.86
2022-11-09T17:01:12.694Z,7.83
2022-11-09T17:03:40.421Z,7.77
2022-11-09T17:06:11.301Z,7.75
2022-11-09T17:08:41.455Z,7.74
2022-11-09T17:11:10.206Z,7.69
2022-11-09T17:13:37.516Z,7.64
2022-11-09T17:16:07.071Z,7.61
2022-11-09T17:18:33.911Z,7.55
2022-11-09T17:21:00.671Z,7.54
2022-11-09T17:23:27.287Z,7.56
2022-11-09T17:25:58.519Z,7.54
2022-11-09T17:28:26.489Z,7.52
2022-11-09T17:30:53.757Z,7.48
2022-11-09T17:33:20.415Z,7.44
2022-11-09T17:35:47.186Z,7.43
2022-11-09T17:38:14.148Z,7.38
2022-11-09T17:40:40.741Z,7.33
2022-11-09T17:43:07.503Z,7.36
2022-11-09T17:45:35.979Z,7.40
2022-11-09T17:48:02.542Z,7.38
2022-11-09T17:50:29.188Z,7.39
2022-11-09T17:52:55.742Z,7.38
2022-11-09T17:55:22.398Z,7.38
2022-11-09T17:57:49.154Z,7.41
2022-11-09T18:00:16.288Z,7.41
2022-11-09T18:02:42.833Z,7.41
2022-11-09T18:05:11.034Z,7.36
2022-11-09T18:07:37.618Z,7.37
2022-11-09T18:10:04.475Z,7.37
2022-11-09T18:12:31.047Z,7.29
2022-11-09T18:14:57.584Z,7.27
2022-11-09T18:17:24.160Z,7.26
2022-11-09T18:19:50.692Z,7.26
2022-11-09T18:22:17.276Z,7.22
2022-11-09T18:24:43.882Z,7.18
2022-11-09T18:27:10.429Z,7.17
2022-11-09T18:29:37.062Z,7.17
2022-11-09T18:32:03.757Z,7.20
2022-11-09T18:34:30.301Z,7.17
2022-11-09T18:36:56.960Z,7.22
2022-11-09T18:39:26.590Z,7.19
2022-11-09T18:41:54.537Z,7.18
2022-11-09T18:44:21.163Z,7.24
2022-11-09T18:46:47.875Z,7.22
2022-11-09T18:49:14.704Z,7.24
2022-11-09T18:51:42.764Z,7.16
2022-11-09T18:54:09.363Z,7.18
2022-11-09T18:56:35.964Z,7.26
2022-11-09T18:59:02.552Z,7.18
2022-11-09T19:01:29.234Z,7.22
2022-11-09T19:03:59.203Z,7.10
2022-11-09T19:06:26.815Z,7.10
2022-11-09T19:09:12.205Z,7.11
2022-11-09T19:11:39.064Z,7.09
2022-11-09T19:14:05.643Z,7.06
2022-11-09T19:16:32.246Z,7.01
2022-11-09T19:18:58.944Z,6.99
2022-11-09T19:21:25.918Z,6.93
2022-11-09T19:23:53.868Z,6.97
2022-11-09T19:26:22.108Z,6.91
2022-11-09T19:28:48.790Z,6.88
2022-11-09T19:31:17.787Z,6.83
2022-11-09T19:33:44.734Z,6.80
2022-11-09T19:38:58.617Z,6.71
2022-11-09T19:41:25.822Z,6.82
2022-11-09T19:43:55.634Z,6.81
2022-11-09T19:46:22.358Z,6.78
2022-11-09T19:48:48.964Z,6.80
2022-11-09T19:51:17.057Z,6.73
2022-11-09T19:53:59.612Z,6.74
2022-11-09T19:56:27.919Z,6.80
2022-11-09T19:58:59.343Z,6.79
2022-11-09T20:01:26.336Z,6.84
2022-11-09T20:03:58.218Z,6.90
2022-11-09T20:06:26.143Z,6.83
2022-11-09T20:08:53.872Z,6.85
2022-11-09T20:11:41.293Z,6.88
2022-11-09T20:14:08.916Z,6.91
2022-11-09T20:16:36.746Z,6.93
2022-11-09T20:19:04.928Z,6.89
2022-11-09T20:21:31.508Z,6.88
2022-11-09T20:23:58.129Z,6.84
2022-11-09T20:26:24.724Z,6.81
2022-11-09T20:28:55.347Z,6.78
2022-11-09T20:31:22.732Z,6.75
2022-11-09T20:33:49.562Z,6.83
2022-11-09T20:36:18.676Z,6.88
2022-11-09T20:38:45.825Z,6.89
2022-11-09T20:41:13.021Z,6.87
2022-11-09T20:43:39.715Z,6.91
2022-11-09T20:46:18.214Z,6.89
2022-11-09T20:48:54.513Z,6.83
2022-11-09T20:51:23.055Z,6.90
2022-11-09T20:53:50.714Z,6.93
2022-11-09T20:56:19.516Z,6.79
2022-11-09T20:58:46.476Z,6.74
2022-11-09T21:01:17.047Z,6.74
2022-11-09T21:03:44.531Z,6.74
2022-11-09T21:06:12.471Z,6.69
2022-11-09T21:08:39.838Z,6.76
2022-11-09T21:11:08.209Z,6.74
2022-11-09T21:13:34.756Z,6.62
2022-11-09T21:16:06.346Z,6.65
2022-11-09T21:18:33.666Z,6.56
2022-11-09T21:21:11.371Z,6.57
2022-11-09T21:23:57.802Z,6.72
2022-11-09T21:26:43.916Z,6.72
2022-11-09T21:29:33.293Z,6.69
2022-11-09T21:32:00.146Z,6.75
2022-11-09T21:34:31.469Z,6.68
2022-11-09T21:37:02.245Z,6.71
2022-11-09T21:39:28.967Z,6.64
2022-11-09T21:41:55.553Z,6.65
2022-11-09T21:44:22.386Z,6.60
2022-11-09T21:46:48.967Z,6.60
2022-11-09T21:49:15.639Z,6.57
2022-11-09T21:51:42.509Z,6.54
2022-11-09T21:54:10.593Z,6.48
2022-11-09T21:56:37.258Z,6.49
2022-11-09T21:59:04.779Z,6.51
2022-11-09T22:01:32.042Z,6.49
2022-11-09T22:03:59.184Z,6.47
2022-11-09T22:06:26.346Z,6.41
2022-11-09T22:08:53.454Z,6.36
2022-11-09T22:11:41.730Z,6.25
2022-11-09T22:14:34.785Z,6.19
2022-11-09T22:17:02.194Z,6.20
2022-11-09T22:19:47.592Z,6.17
2022-11-09T22:22:15.278Z,6.15
2022-11-09T22:24:42.190Z,6.12
2022-11-09T22:27:08.875Z,6.15
2022-11-09T22:29:35.643Z,6.12
2022-11-09T22:32:02.627Z,6.14
2022-11-09T22:34:29.193Z,6.11
2022-11-09T22:36:55.997Z,6.06
2022-11-09T22:39:23.372Z,6.08
2022-11-09T22:41:49.924Z,6.05
2022-11-09T22:44:16.668Z,6.01
2022-11-09T22:46:43.250Z,6.01
2022-11-09T22:49:10.423Z,5.96
2022-11-09T22:51:36.987Z,5.92
2022-11-09T22:54:03.788Z,5.92
2022-11-09T22:56:30.386Z,6.03
2022-11-09T22:58:57.337Z,5.96
2022-11-09T23:01:24.004Z,5.87
2022-11-09T23:03:50.672Z,5.92
2022-11-09T23:06:19.525Z,5.89
2022-11-09T23:08:46.471Z,5.87
2022-11-09T23:11:19.310Z,5.83
2022-11-09T23:13:49.961Z,5.78
2022-11-09T23:16:16.692Z,5.79
2022-11-09T23:18:55.654Z,5.78
2022-11-09T23:21:31.556Z,5.88
2022-11-09T23:24:02.035Z,5.85
2022-11-09T23:26:29.538Z,5.82
2022-11-09T23:28:56.449Z,5.85
2022-11-09T23:31:27.041Z,5.88
2022-11-09T23:33:55.742Z,5.87
2022-11-09T23:36:23.813Z,5.92
2022-11-09T23:38:50.792Z,5.87
2022-11-09T23:41:17.876Z,5.86
2022-11-09T23:43:48.924Z,5.91
2022-11-09T23:46:18.177Z,5.89
2022-11-09T23:48:45.024Z,5.84
2022-11-09T23:51:11.904Z,5.88
2022-11-09T23:53:39.259Z,5.96
2022-11-09T23:56:09.016Z,5.98
2022-11-09T23:58:36.256Z,5.99
